Time;durP1;ratioP1;P1;durP2;ratioP2;P2;SDS_P1;SDS_P2;PMS_P1;PMS_P2;Temp;Humidity;BMP_temperature;BMP_pressure;BME280_temperature;BME280_humidity;BME280_pressure;Samples;Min_cycle;Max_cycle;Signal;HPM_P1;HPM_P2
2022/02/09 00:00:06;;;;;;;;;;;;;;;;;;2080943;28;20016;-44
2022/02/09 00:01:20;;;;;;;;;;;;;;;;;;2082087;28;20382;-43
2022/02/09 00:02:46;;;;;;;;;;;;;;;;;;2082854;28;19925;-57
2022/02/09 00:03:55;;;;;;;;;;;;;;;;;;2080707;28;20012;-58
2022/02/09 00:05:14;;;;;;;;;;;;;;;;;;2082654;28;20649;-58
2022/02/09 00:06:27;;;;;;;;;;;;;;;;;;2081665;28;19960;-57
2022/02/09 00:07:35;;;;;;;;;;;;;;;;;;2082754;28;19921;-58
2022/02/09 00:08:36;;;;;;;;;;;;;;;;;;2081032;28;20011;-57
2022/02/09 00:09:38;;;;;;;;;;;;;;;;;;2081910;28;20013;-58
2022/02/09 00:10:42;;;;;;;;;;;;;;;;;;2082552;28;19925;-58
2022/02/09 00:11:48;;;;;;;;;;;;;;;;;;2081465;28;20409;-57
2022/02/09 00:12:58;;;;;;;;;;;;;;;;;;2082232;28;19928;-57
2022/02/09 00:14:07;;;;;;;;;;;;;;;;;;2082511;28;19921;-57
2022/02/09 00:15:22;;;;;;;;;;;;;;;;;;2080627;28;20011;-59
2022/02/09 00:16:47;;;;;;;;;;;;;;;;;;2082327;28;19960;-58
2022/02/09 00:17:55;;;;;;;;;;;;;;;;;;2080191;28;20052;-57
2022/02/09 00:19:02;;;;;;;;;;;;;;;;;;2082470;28;20264;-57
2022/02/09 00:21:42;;;;;;;;;;;;;;;;;;2078242;28;20011;-44
2022/02/09 00:23:13;;;;;;;;;;;;;;;;;;2082171;28;19965;-58
2022/02/09 00:24:38;;;;;;;;;;;;;;;;;;2082041;28;20259;-57
2022/02/09 00:27:44;;;;;;;;;;;;;;;;;;2081810;28;19967;-58
2022/02/09 00:29:12;;;;;;;;;;;;;;;;;;2079991;28;20341;-57
2022/02/09 00:30:43;;;;;;;;;;;;;;;;;;2074658;28;20069;-45
2022/02/09 00:33:50;;;;;;;;;;;;;;;;;;2074319;28;20004;-44
2022/02/09 00:35:24;;;;;;;;;;;;;;;;;;2080590;28;19928;-45
2022/02/09 00:39:15;;;;;;;;;;;;;;;;;;2082297;28;20019;-45
2022/02/09 00:41:48;;;;;;;;;;;;;;;;;;2082396;28;20012;-45
2022/02/09 00:44:28;;;;;;;;;;;;;;;;;;2049385;28;20466;-43
2022/02/09 00:59:19;;;;;;;;;;;;;;;;;;2082185;28;20016;-58
2022/02/09 01:11:59;;;;;;;;;;;;;;;;;;2080230;28;20385;-44
2022/02/09 01:38:01;;;;;;;;;;;;;;;;;;2056582;28;20419;-44
2022/02/09 01:38:45;;;;;;;;;;;;;;;;;;2059555;28;20054;-58
2022/02/09 01:39:53;;;;;;;;;;;;;;;;;;2078020;28;19927;-58
2022/02/09 01:41:49;;;;;;;;;;;;;;;;;;2082072;28;20346;-44
2022/02/09 01:55:48;;;;;;;;;;;;;;;;;;2082066;28;20008;-44
2022/02/09 01:56:49;;;;;;;;;;;;;;;;;;2080897;28;19960;-44
2022/02/09 01:57:50;;;;;;;;;;;;;;;;;;2081768;28;20378;-45
2022/02/09 01:58:51;;;;;;;;;;;;;;;;;;2081722;28;19956;-44
2022/02/09 01:59:52;;;;;;;;;;;;;;;;;;2080920;28;20007;-44
2022/02/09 02:00:53;;;;;;;;;;;;;;;;;;2081608;28;19952;-44
2022/02/09 02:01:54;;;;;;;;;;;;;;;;;;2081180;28;19921;-44
2022/02/09 02:02:55;;;;;;;;;;;;;;;;;;2081535;28;19921;-56
2022/02/09 02:03:56;;;;;;;;;;;;;;;;;;2081672;28;19928;-57
2022/02/09 02:04:57;;;;;;;;;;;;;;;;;;2079565;28;19967;-57
2022/02/09 02:05:58;;;;;;;;;;;;;;;;;;2081486;28;19925;-57
2022/02/09 02:06:59;;;;;;;;;;;;;;;;;;2081811;28;19921;-57
2022/02/09 02:08:01;;;;;;;;;;;;;;;;;;2079456;28;19943;-56
2022/02/09 02:09:02;;;;;;;;;;;;;;;;;;2081931;28;20007;-56
2022/02/09 02:10:07;;;;;;;;;;;;;;;;;;2081242;28;20472;-56
2022/02/09 02:11:15;;;;;;;;;;;;;;;;;;2080914;28;20355;-57
2022/02/09 02:12:21;;;;;;;;;;;;;;;;;;2081321;28;19924;-56
2022/02/09 02:13:32;;;;;;;;;;;;;;;;;;2079954;28;20418;-44
2022/02/09 02:14:39;;;;;;;;;;;;;;;;;;2081687;28;20019;-44
2022/02/09 02:16:14;;;;;;;;;;;;;;;;;;2081580;28;19921;-44
2022/02/09 02:17:21;;;;;;;;;;;;;;;;;;2081529;28;20007;-44
2022/02/09 02:18:23;;;;;;;;;;;;;;;;;;2081802;28;19949;-43
2022/02/09 02:19:32;;;;;;;;;;;;;;;;;;2080524;28;20074;-43
2022/02/09 02:20:42;;;;;;;;;;;;;;;;;;2081714;28;20031;-44
2022/02/09 02:21:57;;;;;;;;;;;;;;;;;;2080853;28;19963;-44
2022/02/09 02:23:21;;;;;;;;;;;;;;;;;;2080974;28;19967;-45
2022/02/09 02:24:59;;;;;;;;;;;;;;;;;;2079487;28;20369;-44
2022/02/09 02:26:12;;;;;;;;;;;;;;;;;;2073381;28;20390;-44
2022/02/09 02:27:39;;;;;;;;;;;;;;;;;;2074432;28;20369;-43
2022/02/09 02:28:50;;;;;;;;;;;;;;;;;;2081471;28;19968;-44
2022/02/09 02:30:08;;;;;;;;;;;;;;;;;;2081716;28;20007;-43
2022/02/09 02:31:34;;;;;;;;;;;;;;;;;;2081093;28;20007;-43
2022/02/09 02:34:33;;;;;;;;;;;;;;;;;;2054937;28;20008;-44
2022/02/09 02:35:59;;;;;;;;;;;;;;;;;;2081006;28;20052;-44
2022/02/09 02:46:47;;;;;;;;;;;;;;;;;;2081318;28;20255;-45
2022/02/09 02:57:14;;;;;;;;;;;;;;;;;;2081167;28;19992;-43
2022/02/09 02:58:49;;;;;;;;;;;;;;;;;;2080977;28;20009;-43
2022/02/09 03:09:19;;;;;;;;;;;;;;;;;;2081414;28;19960;-44
2022/02/09 03:10:49;;;;;;;;;;;;;;;;;;2080335;28;20447;-43
2022/02/09 03:12:05;;;;;;;;;;;;;;;;;;2081209;28;20416;-44
2022/02/09 03:13:08;;;;;;;;;;;;;;;;;;2078923;28;20007;-43
2022/02/09 03:14:13;;;;;;;;;;;;;;;;;;2081295;28;20031;-43
2022/02/09 03:15:32;;;;;;;;;;;;;;;;;;2080854;28;19959;-44
2022/02/09 03:16:37;;;;;;;;;;;;;;;;;;2080280;28;20309;-56
2022/02/09 03:17:41;;;;;;;;;;;;;;;;;;2081754;28;19960;-56
2022/02/09 03:20:06;;;;;;;;;;;;;;;;;;2073193;28;19922;-45
2022/02/09 03:21:17;;;;;;;;;;;;;;;;;;2078454;28;20010;-44
2022/02/09 03:22:27;;;;;;;;;;;;;;;;;;2080265;28;19971;-44
2022/02/09 03:23:43;;;;;;;;;;;;;;;;;;2080883;28;20413;-44
2022/02/09 03:25:05;;;;;;;;;;;;;;;;;;2079333;28;19972;-43
2022/02/09 03:26:28;;;;;;;;;;;;;;;;;;2081571;28;20339;-56
2022/02/09 03:27:45;;;;;;;;;;;;;;;;;;2080111;28;19975;-56
2022/02/09 03:42:17;;;;;;;;;;;;;;;;;;2081297;28;20067;-55
2022/02/09 03:43:46;;;;;;;;;;;;;;;;;;2081120;28;19983;-56
2022/02/09 03:46:23;;;;;;;;;;;;;;;;;;2080923;28;19975;-56
2022/02/09 03:47:37;;;;;;;;;;;;;;;;;;2080523;28;20017;-56
2022/02/09 03:48:52;;;;;;;;;;;;;;;;;;2081216;28;20042;-43
2022/02/09 03:50:23;;;;;;;;;;;;;;;;;;2080145;28;20012;-43
2022/02/09 03:51:52;;;;;;;;;;;;;;;;;;2081002;28;20366;-43
2022/02/09 03:54:26;;;;;;;;;;;;;;;;;;2065647;28;19956;-43
2022/02/09 03:55:39;;;;;;;;;;;;;;;;;;2080098;28;19956;-44
2022/02/09 03:57:02;;;;;;;;;;;;;;;;;;2081090;28;19960;-44
2022/02/09 03:58:03;;;;;;;;;;;;;;;;;;2080267;28;20325;-43
2022/02/09 03:59:04;;;;;;;;;;;;;;;;;;2080829;28;19944;-44
2022/02/09 04:00:05;;;;;;;;;;;;;;;;;;2081139;28;19921;-45
2022/02/09 04:01:06;;;;;;;;;;;;;;;;;;2079870;28;19928;-44
2022/02/09 04:02:07;;;;;;;;;;;;;;;;;;2081052;28;19921;-44
2022/02/09 04:03:12;;;;;;;;;;;;;;;;;;2081139;28;19952;-45
2022/02/09 04:04:14;;;;;;;;;;;;;;;;;;2080456;28;19932;-44
2022/02/09 04:05:15;;;;;;;;;;;;;;;;;;2081135;28;20067;-44
2022/02/09 04:06:16;;;;;;;;;;;;;;;;;;2080620;28;21107;-44
2022/02/09 04:07:17;;;;;;;;;;;;;;;;;;2080357;28;19931;-44
2022/02/09 04:08:21;;;;;;;;;;;;;;;;;;2081018;28;19940;-45
2022/02/09 04:09:26;;;;;;;;;;;;;;;;;;2078892;28;20023;-44
2022/02/09 04:10:35;;;;;;;;;;;;;;;;;;2080702;28;20008;-44
2022/02/09 04:11:41;;;;;;;;;;;;;;;;;;2080896;28;19964;-44
2022/02/09 04:12:50;;;;;;;;;;;;;;;;;;2078668;28;19920;-45
2022/02/09 04:14:00;;;;;;;;;;;;;;;;;;2081006;28;20092;-44
2022/02/09 04:15:15;;;;;;;;;;;;;;;;;;2078940;28;19959;-44
2022/02/09 04:16:31;;;;;;;;;;;;;;;;;;2080867;28;20015;-44
2022/02/09 04:17:38;;;;;;;;;;;;;;;;;;2080543;28;20398;-44
2022/02/09 04:18:52;;;;;;;;;;;;;;;;;;2080097;28;19928;-45
2022/02/09 04:20:15;;;;;;;;;;;;;;;;;;2081166;28;20051;-45
2022/02/09 04:36:21;;;;;;;;;;;;;;;;;;2082039;28;20267;-44
2022/02/09 04:37:31;;;;;;;;;;;;;;;;;;2081968;28;20469;-44
2022/02/09 04:38:41;;;;;;;;;;;;;;;;;;2081954;28;19994;-45
2022/02/09 04:39:49;;;;;;;;;;;;;;;;;;2082270;28;20379;-45
2022/02/09 04:43:46;;;;;;;;;;;;;;;;;;2072041;28;19922;-45
2022/02/09 04:45:13;;;;;;;;;;;;;;;;;;2074226;28;20355;-44
2022/02/09 04:46:58;;;;;;;;;;;;;;;;;;2076364;28;19957;-44
2022/02/09 04:48:00;;;;;;;;;;;;;;;;;;2073888;28;19968;-45
2022/02/09 04:49:35;;;;;;;;;;;;;;;;;;2074562;28;20016;-44
2022/02/09 04:50:39;;;;;;;;;;;;;;;;;;2082308;28;20018;-44
2022/02/09 04:51:58;;;;;;;;;;;;;;;;;;2080569;28;20386;-45
2022/02/09 04:53:22;;;;;;;;;;;;;;;;;;2081092;28;20384;-46
2022/02/09 04:54:29;;;;;;;;;;;;;;;;;;2081946;28;20184;-46
2022/02/09 04:55:48;;;;;;;;;;;;;;;;;;2081527;28;20071;-45
2022/02/09 04:56:54;;;;;;;;;;;;;;;;;;2082339;28;19928;-46
2022/02/09 04:57:59;;;;;;;;;;;;;;;;;;2079752;28;19925;-45
2022/02/09 04:59:11;;;;;;;;;;;;;;;;;;2082201;28;20298;-46
2022/02/09 05:00:25;;;;;;;;;;;;;;;;;;2080215;28;20462;-45
2022/02/09 05:01:52;;;;;;;;;;;;;;;;;;2081420;28;19957;-46
2022/02/09 05:04:28;;;;;;;;;;;;;;;;;;2081153;28;19928;-57
2022/02/09 05:18:06;;;;;;;;;;;;;;;;;;2079906;28;20071;-59
2022/02/09 05:21:14;;;;;;;;;;;;;;;;;;2077410;28;20007;-59
2022/02/09 05:22:17;;;;;;;;;;;;;;;;;;2073931;28;20249;-59
2022/02/09 05:24:45;;;;;;;;;;;;;;;;;;2081798;28;19962;-59
2022/02/09 05:25:48;;;;;;;;;;;;;;;;;;2080106;28;20466;-59
2022/02/09 05:27:02;;;;;;;;;;;;;;;;;;2081662;28;20023;-59
2022/02/09 05:28:05;;;;;;;;;;;;;;;;;;2082044;28;19971;-59
2022/02/09 05:30:31;;;;;;;;;;;;;;;;;;2082183;28;19921;-60
2022/02/09 05:31:32;;;;;;;;;;;;;;;;;;2079701;28;20520;-60
2022/02/09 05:32:33;;;;;;;;;;;;;;;;;;2081598;28;19925;-59
2022/02/09 05:33:34;;;;;;;;;;;;;;;;;;2082109;28;19925;-59
2022/02/09 05:34:35;;;;;;;;;;;;;;;;;;2081326;28;19956;-45
2022/02/09 05:35:36;;;;;;;;;;;;;;;;;;2080598;28;20034;-44
2022/02/09 05:36:37;;;;;;;;;;;;;;;;;;2082103;28;20417;-44
2022/02/09 05:37:38;;;;;;;;;;;;;;;;;;2081009;28;19925;-45
2022/02/09 05:38:38;;;;;;;;;;;;;;;;;;2082045;28;20377;-45
2022/02/09 05:39:39;;;;;;;;;;;;;;;;;;2082180;28;19933;-46
2022/02/09 05:40:40;;;;;;;;;;;;;;;;;;2079371;28;19921;-44
2022/02/09 05:41:44;;;;;;;;;;;;;;;;;;2082037;28;19928;-44
2022/02/09 05:42:45;;;;;;;;;;;;;;;;;;2079771;28;20458;-46
2022/02/09 05:43:46;;;;;;;;;;;;;;;;;;2081660;28;19921;-45
2022/02/09 05:44:49;;;;;;;;;;;;;;;;;;2081958;28;19921;-45
2022/02/09 05:46:24;;;;;;;;;;;;;;;;;;2081142;28;20385;-52
2022/02/09 05:50:09;;;;;;;;;;;;;;;;;;2082012;28;20030;-59
2022/02/09 05:51:16;;;;;;;;;;;;;;;;;;2081347;28;20008;-59
2022/02/09 05:52:22;;;;;;;;;;;;;;;;;;2081139;28;20007;-59
2022/02/09 05:53:34;;;;;;;;;;;;;;;;;;2081935;28;20165;-59
2022/02/09 05:54:59;;;;;;;;;;;;;;;;;;2079424;28;19944;-59
2022/02/09 05:56:07;;;;;;;;;;;;;;;;;;2081690;28;20358;-57
2022/02/09 05:57:24;;;;;;;;;;;;;;;;;;2081574;28;20012;-57
2022/02/09 05:58:37;;;;;;;;;;;;;;;;;;2073626;28;20016;-58
2022/02/09 05:59:38;;;;;;;;;;;;;;;;;;2073582;28;19968;-58
2022/02/09 06:00:41;;;;;;;;;;;;;;;;;;2080600;28;19921;-59
2022/02/09 06:01:43;;;;;;;;;;;;;;;;;;2081618;28;19921;-60
2022/02/09 06:02:44;;;;;;;;;;;;;;;;;;2079861;28;20020;-64
2022/02/09 06:03:44;;;;;;;;;;;;;;;;;;2081427;28;20291;-60
2022/02/09 06:04:45;;;;;;;;;;;;;;;;;;2081810;28;19921;-62
2022/02/09 06:05:47;;;;;;;;;;;;;;;;;;2080634;28;19975;-59
2022/02/09 06:06:48;;;;;;;;;;;;;;;;;;2081820;28;20378;-45
2022/02/09 06:07:49;;;;;;;;;;;;;;;;;;2081839;28;19921;-45
2022/02/09 06:08:50;;;;;;;;;;;;;;;;;;2080836;28;19929;-45
2022/02/09 06:09:50;;;;;;;;;;;;;;;;;;2081821;28;19929;-45
2022/02/09 06:11:04;;;;;;;;;;;;;;;;;;2081681;28;19921;-44
2022/02/09 06:12:11;;;;;;;;;;;;;;;;;;2080567;28;20079;-46
2022/02/09 06:13:20;;;;;;;;;;;;;;;;;;2081810;28;19925;-44
2022/02/09 06:14:41;;;;;;;;;;;;;;;;;;2080721;28;19943;-45
2022/02/09 06:19:47;;;;;;;;;;;;;;;;;;2075658;28;20401;-45
2022/02/09 06:20:48;;;;;;;;;;;;;;;;;;2081485;28;20015;-45
2022/02/09 06:21:49;;;;;;;;;;;;;;;;;;2081679;28;19921;-46
2022/02/09 06:22:50;;;;;;;;;;;;;;;;;;2079343;28;19929;-46
2022/02/09 06:23:51;;;;;;;;;;;;;;;;;;2081629;28;19974;-45
2022/02/09 06:24:52;;;;;;;;;;;;;;;;;;2081443;28;19921;-46
2022/02/09 06:25:54;;;;;;;;;;;;;;;;;;2080447;28;20385;-46
2022/02/09 06:26:55;;;;;;;;;;;;;;;;;;2081734;28;19929;-46
2022/02/09 06:27:56;;;;;;;;;;;;;;;;;;2080870;28;19921;-46
2022/02/09 06:28:57;;;;;;;;;;;;;;;;;;2080200;28;19921;-45
2022/02/09 06:29:58;;;;;;;;;;;;;;;;;;2081552;28;19928;-45
2022/02/09 06:30:59;;;;;;;;;;;;;;;;;;2081352;28;20381;-54
2022/02/09 06:32:07;;;;;;;;;;;;;;;;;;2081086;28;19920;-46
2022/02/09 06:33:08;;;;;;;;;;;;;;;;;;2081667;28;20011;-47
2022/02/09 06:34:12;;;;;;;;;;;;;;;;;;2080516;28;20224;-45
2022/02/09 06:35:13;;;;;;;;;;;;;;;;;;2081552;28;20014;-46
2022/02/09 06:36:15;;;;;;;;;;;;;;;;;;2081499;28;20429;-45
2022/02/09 06:37:19;;;;;;;;;;;;;;;;;;2080429;28;20374;-46
2022/02/09 06:38:21;;;;;;;;;;;;;;;;;;2081022;28;20004;-47
2022/02/09 06:39:22;;;;;;;;;;;;;;;;;;2080615;28;20422;-45
2022/02/09 06:40:23;;;;;;;;;;;;;;;;;;2079365;28;19924;-45
2022/02/09 06:41:24;;;;;;;;;;;;;;;;;;2080579;28;20290;-44
2022/02/09 06:42:25;;;;;;;;;;;;;;;;;;2079592;28;20267;-54
2022/02/09 06:43:29;;;;;;;;;;;;;;;;;;2081150;28;19983;-56
2022/02/09 06:44:33;;;;;;;;;;;;;;;;;;2081597;28;20180;-45
2022/02/09 06:45:37;;;;;;;;;;;;;;;;;;2079304;28;20225;-45
2022/02/09 06:46:38;;;;;;;;;;;;;;;;;;2081486;28;20019;-45
2022/02/09 06:47:40;;;;;;;;;;;;;;;;;;2081508;28;19921;-45
2022/02/09 06:48:41;;;;;;;;;;;;;;;;;;2080676;28;19921;-59
2022/02/09 06:49:43;;;;;;;;;;;;;;;;;;2081428;28;20298;-59
2022/02/09 06:50:47;;;;;;;;;;;;;;;;;;2080868;28;20009;-63
2022/02/09 06:51:48;;;;;;;;;;;;;;;;;;2081215;28;20015;-62
2022/02/09 06:53:01;;;;;;;;;;;;;;;;;;2081477;28;19928;-61
2022/02/09 06:54:03;;;;;;;;;;;;;;;;;;2080568;28;20283;-49
2022/02/09 06:55:13;;;;;;;;;;;;;;;;;;2081695;28;20377;-61
2022/02/09 06:56:23;;;;;;;;;;;;;;;;;;2081076;28;19969;-60
2022/02/09 06:57:33;;;;;;;;;;;;;;;;;;2080359;28;19921;-62
2022/02/09 06:58:58;;;;;;;;;;;;;;;;;;2081536;28;19921;-60
2022/02/09 06:59:59;;;;;;;;;;;;;;;;;;2079224;28;20047;-47
2022/02/09 07:01:00;;;;;;;;;;;;;;;;;;2081232;28;19921;-46
2022/02/09 07:02:04;;;;;;;;;;;;;;;;;;2081029;28;20003;-47
2022/02/09 07:03:05;;;;;;;;;;;;;;;;;;2080444;28;20012;-47
2022/02/09 07:04:05;;;;;;;;;;;;;;;;;;2081339;28;20295;-47
2022/02/09 07:05:06;;;;;;;;;;;;;;;;;;2080748;28;19952;-60
2022/02/09 07:06:07;;;;;;;;;;;;;;;;;;2081027;28;19921;-60
2022/02/09 07:07:08;;;;;;;;;;;;;;;;;;2081476;28;19921;-60
2022/02/09 07:08:09;;;;;;;;;;;;;;;;;;2079159;28;19921;-60
2022/02/09 07:09:10;;;;;;;;;;;;;;;;;;2081819;28;19957;-59
2022/02/09 07:10:11;;;;;;;;;;;;;;;;;;2081362;28;20298;-61
2022/02/09 07:11:12;;;;;;;;;;;;;;;;;;2080137;28;19921;-61
2022/02/09 07:12:12;;;;;;;;;;;;;;;;;;2081759;28;19932;-60
2022/02/09 07:13:13;;;;;;;;;;;;;;;;;;2080913;28;19925;-60
2022/02/09 07:14:17;;;;;;;;;;;;;;;;;;2079478;28;19929;-59
2022/02/09 07:15:27;;;;;;;;;;;;;;;;;;2081325;28;20035;-59
2022/02/09 07:16:29;;;;;;;;;;;;;;;;;;2080583;28;19927;-60
2022/02/09 07:17:31;;;;;;;;;;;;;;;;;;2081277;28;19921;-60
2022/02/09 07:18:32;;;;;;;;;;;;;;;;;;2081288;28;20369;-59
2022/02/09 07:19:33;;;;;;;;;;;;;;;;;;2079153;28;20007;-58
2022/02/09 07:20:43;;;;;;;;;;;;;;;;;;2081287;28;20012;-59
2022/02/09 07:21:44;;;;;;;;;;;;;;;;;;2080855;28;20019;-60
2022/02/09 07:22:46;;;;;;;;;;;;;;;;;;2080942;28;19929;-58
2022/02/09 07:23:51;;;;;;;;;;;;;;;;;;2081247;28;19927;-59
2022/02/09 07:25:03;;;;;;;;;;;;;;;;;;2080486;28;24085;-59
2022/02/09 07:26:09;;;;;;;;;;;;;;;;;;2081051;28;19921;-59
2022/02/09 07:27:26;;;;;;;;;;;;;;;;;;2081390;28;19965;-59
2022/02/09 07:28:27;;;;;;;;;;;;;;;;;;2079966;28;20011;-58
2022/02/09 07:29:28;;;;;;;;;;;;;;;;;;2081192;28;19960;-59
2022/02/09 07:30:28;;;;;;;;;;;;;;;;;;2079061;28;19921;-58
2022/02/09 07:31:29;;;;;;;;;;;;;;;;;;2081212;28;20258;-46
2022/02/09 07:32:30;;;;;;;;;;;;;;;;;;2081441;28;19925;-59
2022/02/09 07:33:31;;;;;;;;;;;;;;;;;;2080515;28;20363;-46
2022/02/09 07:34:32;;;;;;;;;;;;;;;;;;2081505;28;19921;-47
2022/02/09 07:35:33;;;;;;;;;;;;;;;;;;2081180;28;19924;-47
2022/02/09 07:36:35;;;;;;;;;;;;;;;;;;2078723;28;20264;-46
2022/02/09 07:37:37;;;;;;;;;;;;;;;;;;2081798;28;19929;-57
2022/02/09 07:38:40;;;;;;;;;;;;;;;;;;2080466;28;19927;-58
2022/02/09 07:39:40;;;;;;;;;;;;;;;;;;2080706;28;19925;-59
2022/02/09 07:40:42;;;;;;;;;;;;;;;;;;2081159;28;19944;-58
2022/02/09 07:41:48;;;;;;;;;;;;;;;;;;2080160;28;20382;-58
2022/02/09 07:42:50;;;;;;;;;;;;;;;;;;2080966;28;20297;-58
2022/02/09 07:44:05;;;;;;;;;;;;;;;;;;2081300;28;19921;-45
2022/02/09 07:45:24;;;;;;;;;;;;;;;;;;2080033;28;20019;-45
2022/02/09 07:46:36;;;;;;;;;;;;;;;;;;2081031;28;19996;-47
2022/02/09 07:47:45;;;;;;;;;;;;;;;;;;2079021;28;19960;-58
2022/02/09 07:48:59;;;;;;;;;;;;;;;;;;2081178;28;19921;-58
2022/02/09 07:50:17;;;;;;;;;;;;;;;;;;2080485;28;20349;-59
2022/02/09 07:52:50;;;;;;;;;;;;;;;;;;2065128;28;19921;-58
2022/02/09 07:53:58;;;;;;;;;;;;;;;;;;2080190;28;19970;-45
2022/02/09 07:55:00;;;;;;;;;;;;;;;;;;2081379;28;20010;-58
2022/02/09 07:56:01;;;;;;;;;;;;;;;;;;2080228;28;20008;-58
2022/02/09 07:57:02;;;;;;;;;;;;;;;;;;2081151;28;19921;-46
2022/02/09 07:58:03;;;;;;;;;;;;;;;;;;2081038;28;20393;-47
2022/02/09 07:59:04;;;;;;;;;;;;;;;;;;2080163;28;19921;-45
2022/02/09 08:00:05;;;;;;;;;;;;;;;;;;2081034;28;19928;-46
2022/02/09 08:01:05;;;;;;;;;;;;;;;;;;2080844;28;20016;-45
2022/02/09 08:02:06;;;;;;;;;;;;;;;;;;2079926;28;19921;-46
2022/02/09 08:03:09;;;;;;;;;;;;;;;;;;2081307;28;19920;-46
2022/02/09 08:04:10;;;;;;;;;;;;;;;;;;2080789;28;19960;-57
2022/02/09 08:05:11;;;;;;;;;;;;;;;;;;2080531;28;20320;-56
2022/02/09 08:06:12;;;;;;;;;;;;;;;;;;2081052;28;20357;-56
2022/02/09 08:07:13;;;;;;;;;;;;;;;;;;2078831;28;19925;-58
2022/02/09 08:08:15;;;;;;;;;;;;;;;;;;2080790;28;20540;-57
2022/02/09 08:09:24;;;;;;;;;;;;;;;;;;2081158;28;20019;-57
2022/02/09 08:10:28;;;;;;;;;;;;;;;;;;2080730;28;20278;-57
2022/02/09 08:11:34;;;;;;;;;;;;;;;;;;2082395;28;19963;-57
2022/02/09 08:12:40;;;;;;;;;;;;;;;;;;2080834;28;20039;-56
2022/02/09 08:20:37;;;;;;;;;;;;;;;;;;2057304;28;20005;-45
2022/02/09 08:27:20;;;;;;;;;;;;;;;;;;2056114;28;19922;-55
2022/02/09 08:28:34;;;;;;;;;;;;;;;;;;2074195;28;20326;-56
2022/02/09 08:29:45;;;;;;;;;;;;;;;;;;2075063;28;19921;-56
2022/02/09 08:30:59;;;;;;;;;;;;;;;;;;2081132;28;20019;-45
2022/02/09 08:33:28;;;;;;;;;;;;;;;;;;2081922;28;19960;-45
2022/02/09 08:34:28;;;;;;;;;;;;;;;;;;2082480;28;19964;-45
2022/02/09 08:35:29;;;;;;;;;;;;;;;;;;2081529;28;20347;-45
2022/02/09 08:36:30;;;;;;;;;;;;;;;;;;2081896;28;19921;-47
2022/02/09 08:37:31;;;;;;;;;;;;;;;;;;2082789;28;19929;-56
2022/02/09 08:38:32;;;;;;;;;;;;;;;;;;2080255;28;19963;-57
2022/02/09 08:39:33;;;;;;;;;;;;;;;;;;2082756;28;19965;-46
2022/02/09 08:40:35;;;;;;;;;;;;;;;;;;2082385;28;19925;-46
2022/02/09 08:41:36;;;;;;;;;;;;;;;;;;2081263;28;20412;-49
2022/02/09 08:42:38;;;;;;;;;;;;;;;;;;2082282;28;19920;-46
2022/02/09 08:43:39;;;;;;;;;;;;;;;;;;2082059;28;20007;-45
2022/02/09 08:44:40;;;;;;;;;;;;;;;;;;2081530;28;19979;-46
2022/02/09 08:45:41;;;;;;;;;;;;;;;;;;2082249;28;19928;-47
2022/02/09 08:46:43;;;;;;;;;;;;;;;;;;2081626;28;19921;-45
2022/02/09 08:47:44;;;;;;;;;;;;;;;;;;2081993;28;20422;-56
2022/02/09 08:48:45;;;;;;;;;;;;;;;;;;2082584;28;19928;-45
2022/02/09 08:49:46;;;;;;;;;;;;;;;;;;2080045;28;19928;-44
2022/02/09 08:50:46;;;;;;;;;;;;;;;;;;2081956;28;19927;-45
2022/02/09 08:51:48;;;;;;;;;;;;;;;;;;2082209;28;19921;-44
2022/02/09 08:52:49;;;;;;;;;;;;;;;;;;2079769;28;19971;-45
2022/02/09 08:53:50;;;;;;;;;;;;;;;;;;2082214;28;19928;-44
2022/02/09 08:54:52;;;;;;;;;;;;;;;;;;2082388;28;19921;-46
2022/02/09 08:55:53;;;;;;;;;;;;;;;;;;2081258;28;20015;-56
2022/02/09 08:56:55;;;;;;;;;;;;;;;;;;2082208;28;20310;-58
2022/02/09 08:57:56;;;;;;;;;;;;;;;;;;2081582;28;20528;-56
2022/02/09 08:58:57;;;;;;;;;;;;;;;;;;2080817;28;20022;-56
2022/02/09 09:00:00;;;;;;;;;;;;;;;;;;2082117;28;20418;-56
2022/02/09 09:01:09;;;;;;;;;;;;;;;;;;2081039;28;19928;-56
2022/02/09 09:02:12;;;;;;;;;;;;;;;;;;2082102;28;20015;-57
2022/02/09 09:03:17;;;;;;;;;;;;;;;;;;2082073;28;20437;-56
2022/02/09 09:04:22;;;;;;;;;;;;;;;;;;2081019;28;19920;-55
2022/02/09 09:05:28;;;;;;;;;;;;;;;;;;2082391;28;20003;-56
2022/02/09 09:06:30;;;;;;;;;;;;;;;;;;2081940;28;20015;-46
2022/02/09 09:07:35;;;;;;;;;;;;;;;;;;2081411;28;19971;-49
2022/02/09 09:08:44;;;;;;;;;;;;;;;;;;2082279;28;19960;-46
2022/02/09 09:09:55;;;;;;;;;;;;;;;;;;2081367;28;20489;-45
2022/02/09 09:11:20;;;;;;;;;;;;;;;;;;2082455;28;20012;-58
2022/02/09 09:15:54;;;;;;;;;;;;;;;;;;2079785;28;19929;-46
2022/02/09 09:59:08;;;;;;;;;;;;;;;;;;2055541;28;19993;-46
2022/02/09 10:01:39;;;;;;;;;;;;;;;;;;2051108;28;20288;-46
2022/02/09 10:02:52;;;;;;;;;;;;;;;;;;2072559;28;19921;-47
2022/02/09 10:04:08;;;;;;;;;;;;;;;;;;2080512;28;20389;-45
2022/02/09 10:05:34;;;;;;;;;;;;;;;;;;2081925;28;19921;-45
2022/02/09 10:31:48;;;;;;;;;;;;;;;;;;2081057;28;20050;-57
2022/02/09 10:32:52;;;;;;;;;;;;;;;;;;2073116;28;19921;-57
2022/02/09 10:33:53;;;;;;;;;;;;;;;;;;2073270;28;19929;-57
2022/02/09 10:34:54;;;;;;;;;;;;;;;;;;2081328;28;19963;-56
2022/02/09 10:36:01;;;;;;;;;;;;;;;;;;2081492;28;19921;-56
2022/02/09 10:37:06;;;;;;;;;;;;;;;;;;2080765;28;20285;-57
2022/02/09 10:38:07;;;;;;;;;;;;;;;;;;2080443;28;20059;-57
2022/02/09 10:39:10;;;;;;;;;;;;;;;;;;2081693;28;19921;-56
2022/02/09 10:40:14;;;;;;;;;;;;;;;;;;2079390;28;19921;-57
2022/02/09 10:41:18;;;;;;;;;;;;;;;;;;2081571;28;19921;-57
2022/02/09 10:42:22;;;;;;;;;;;;;;;;;;2081638;28;20015;-48
2022/02/09 10:43:25;;;;;;;;;;;;;;;;;;2081063;28;20032;-46
2022/02/09 10:44:27;;;;;;;;;;;;;;;;;;2081510;28;20079;-46
2022/02/09 10:45:32;;;;;;;;;;;;;;;;;;2079595;28;19921;-45
2022/02/09 10:46:34;;;;;;;;;;;;;;;;;;2080543;28;19999;-45
2022/02/09 10:47:35;;;;;;;;;;;;;;;;;;2081569;28;20015;-45
2022/02/09 10:48:39;;;;;;;;;;;;;;;;;;2079065;28;20397;-47
2022/02/09 10:49:41;;;;;;;;;;;;;;;;;;2081402;28;20295;-44
2022/02/09 10:50:42;;;;;;;;;;;;;;;;;;2081289;28;19929;-47
2022/02/09 10:51:48;;;;;;;;;;;;;;;;;;2079160;28;19964;-45
2022/02/09 10:52:49;;;;;;;;;;;;;;;;;;2081478;28;19967;-46
2022/02/09 10:53:50;;;;;;;;;;;;;;;;;;2079927;28;20295;-47
2022/02/09 10:54:52;;;;;;;;;;;;;;;;;;2080100;28;19967;-46
2022/02/09 10:55:53;;;;;;;;;;;;;;;;;;2081529;28;20015;-45
2022/02/09 10:56:55;;;;;;;;;;;;;;;;;;2080626;28;19921;-46
2022/02/09 10:57:56;;;;;;;;;;;;;;;;;;2080981;28;19967;-47
2022/02/09 10:58:57;;;;;;;;;;;;;;;;;;2081576;28;20055;-46
2022/02/09 10:59:58;;;;;;;;;;;;;;;;;;2079876;28;19944;-46
2022/02/09 11:00:58;;;;;;;;;;;;;;;;;;2081156;28;20003;-45
2022/02/09 11:02:01;;;;;;;;;;;;;;;;;;2081450;28;20319;-46
2022/02/09 11:03:01;;;;;;;;;;;;;;;;;;2078850;28;20008;-45
2022/02/09 11:04:02;;;;;;;;;;;;;;;;;;2081448;28;19921;-46
2022/02/09 11:05:03;;;;;;;;;;;;;;;;;;2080815;28;20296;-46
2022/02/09 11:06:04;;;;;;;;;;;;;;;;;;2079537;28;19979;-46
2022/02/09 11:07:05;;;;;;;;;;;;;;;;;;2081305;28;20421;-47
2022/02/09 11:08:06;;;;;;;;;;;;;;;;;;2080651;28;19975;-46
2022/02/09 11:09:07;;;;;;;;;;;;;;;;;;2080909;28;20119;-46
2022/02/09 11:10:08;;;;;;;;;;;;;;;;;;2081343;28;19956;-46
2022/02/09 11:11:09;;;;;;;;;;;;;;;;;;2079064;28;19929;-46
2022/02/09 11:12:10;;;;;;;;;;;;;;;;;;2081020;28;19944;-47
2022/02/09 11:13:11;;;;;;;;;;;;;;;;;;2081312;28;19928;-46
2022/02/09 11:14:14;;;;;;;;;;;;;;;;;;2079134;28;20012;-46
2022/02/09 11:15:15;;;;;;;;;;;;;;;;;;2081344;28;19924;-48
2022/02/09 11:16:16;;;;;;;;;;;;;;;;;;2081448;28;20384;-49
2022/02/09 11:17:17;;;;;;;;;;;;;;;;;;2080238;28;20290;-45
2022/02/09 11:18:18;;;;;;;;;;;;;;;;;;2081197;28;19921;-46
2022/02/09 11:19:20;;;;;;;;;;;;;;;;;;2079825;28;19921;-45
2022/02/09 11:20:26;;;;;;;;;;;;;;;;;;2080761;28;20011;-57
2022/02/09 11:21:27;;;;;;;;;;;;;;;;;;2081555;28;19928;-57
2022/02/09 11:22:32;;;;;;;;;;;;;;;;;;2080443;28;19943;-57
2022/02/09 11:23:32;;;;;;;;;;;;;;;;;;2081350;28;20232;-56
2022/02/09 11:24:41;;;;;;;;;;;;;;;;;;2081177;28;19921;-57
2022/02/09 11:25:44;;;;;;;;;;;;;;;;;;2078872;28;19920;-57
2022/02/09 11:26:51;;;;;;;;;;;;;;;;;;2081277;28;20436;-56
2022/02/09 11:27:56;;;;;;;;;;;;;;;;;;2081097;28;20012;-46
2022/02/09 11:28:56;;;;;;;;;;;;;;;;;;2081141;28;20059;-46
2022/02/09 11:30:01;;;;;;;;;;;;;;;;;;2081452;28;19968;-45
2022/02/09 11:31:06;;;;;;;;;;;;;;;;;;2080114;28;19925;-56
2022/02/09 11:32:11;;;;;;;;;;;;;;;;;;2080564;28;20059;-46
2022/02/09 11:33:23;;;;;;;;;;;;;;;;;;2081572;28;20011;-57
2022/02/09 11:34:23;;;;;;;;;;;;;;;;;;2079933;28;19982;-57
2022/02/09 11:35:29;;;;;;;;;;;;;;;;;;2081131;28;19987;-56
2022/02/09 11:36:36;;;;;;;;;;;;;;;;;;2079395;28;19936;-45
2022/02/09 11:37:40;;;;;;;;;;;;;;;;;;2081010;28;20030;-47
2022/02/09 11:38:47;;;;;;;;;;;;;;;;;;2081274;28;20015;-45
2022/02/09 11:39:51;;;;;;;;;;;;;;;;;;2080043;28;20373;-45
2022/02/09 11:41:04;;;;;;;;;;;;;;;;;;2081306;28;19973;-56
2022/02/09 11:42:10;;;;;;;;;;;;;;;;;;2079231;28;19979;-56
2022/02/09 11:43:11;;;;;;;;;;;;;;;;;;2081037;28;20016;-57
2022/02/09 11:44:18;;;;;;;;;;;;;;;;;;2081346;28;20315;-56
2022/02/09 11:45:37;;;;;;;;;;;;;;;;;;2080786;28;20390;-45
2022/02/09 11:46:47;;;;;;;;;;;;;;;;;;2082675;28;19921;-45
2022/02/09 11:48:07;;;;;;;;;;;;;;;;;;2080810;28;19960;-57